sensor_id;sensor_type;location;lat;lon;timestamp;pressure;altitude;pressure_sealevel;temperature;humidity
13387;BME280;6763;48.524;9.044;2023-05-16T00:00:02;97454.84;;;16.70;58.89
13387;BME280;6763;48.524;9.044;2023-05-16T00:02:31;97450.44;;;16.70;58.95
13387;BME280;6763;48.524;9.044;2023-05-16T00:04:56;97452.16;;;16.71;58.75
13387;BME280;6763;48.524;9.044;2023-05-16T00:07:22;97448.69;;;16.71;58.83
13387;BME280;6763;48.524;9.044;2023-05-16T00:09:48;97453.06;;;16.70;58.98
13387;BME280;6763;48.524;9.044;2023-05-16T00:12:13;97449.63;;;16.70;59.05
13387;BME280;6763;48.524;9.044;2023-05-16T00:14:39;97452.28;;;16.68;58.87
13387;BME280;6763;48.524;9.044;2023-05-16T00:17:04;97454.13;;;16.66;58.92
13387;BME280;6763;48.524;9.044;2023-05-16T00:19:36;97449.81;;;16.65;59.02
13387;BME280;6763;48.524;9.044;2023-05-16T00:22:03;97452.44;;;16.65;59.09
13387;BME280;6763;48.524;9.044;2023-05-16T00:24:29;97456.03;;;16.63;58.82
13387;BME280;6763;48.524;9.044;2023-05-16T00:26:54;97453.44;;;16.63;58.97
13387;BME280;6763;48.524;9.044;2023-05-16T00:29:20;97455.22;;;16.62;59.19
13387;BME280;6763;48.524;9.044;2023-05-16T00:31:45;97450.00;;;16.62;58.89
13387;BME280;6763;48.524;9.044;2023-05-16T00:34:10;97455.22;;;16.62;59.09
13387;BME280;6763;48.524;9.044;2023-05-16T00:36:36;97454.38;;;16.62;58.85
13387;BME280;6763;48.524;9.044;2023-05-16T00:39:01;97451.00;;;16.60;58.95
13387;BME280;6763;48.524;9.044;2023-05-16T00:41:27;97450.19;;;16.58;58.95
13387;BME280;6763;48.524;9.044;2023-05-16T00:43:52;97450.34;;;16.55;58.94
13387;BME280;6763;48.524;9.044;2023-05-16T00:46:18;97457.41;;;16.53;59.11
13387;BME280;6763;48.524;9.044;2023-05-16T00:48:43;97455.66;;;16.53;59.24
13387;BME280;6763;48.524;9.044;2023-05-16T00:51:09;97451.31;;;16.52;59.05
13387;BME280;6763;48.524;9.044;2023-05-16T00:53:35;97451.38;;;16.51;59.22
13387;BME280;6763;48.524;9.044;2023-05-16T00:56:01;97454.00;;;16.51;59.14
13387;BME280;6763;48.524;9.044;2023-05-16T00:58:29;97454.00;;;16.51;59.20
13387;BME280;6763;48.524;9.044;2023-05-16T01:00:54;97449.63;;;16.51;58.88
13387;BME280;6763;48.524;9.044;2023-05-16T01:03:20;97449.56;;;16.53;59.12
13387;BME280;6763;48.524;9.044;2023-05-16T01:05:46;97445.09;;;16.55;58.99
13387;BME280;6763;48.524;9.044;2023-05-16T01:08:13;97448.56;;;16.55;59.12
13387;BME280;6763;48.524;9.044;2023-05-16T01:10:45;97447.66;;;16.56;58.80
13387;BME280;6763;48.524;9.044;2023-05-16T01:13:26;97444.97;;;16.58;59.03
13387;BME280;6763;48.524;9.044;2023-05-16T01:16:08;97449.28;;;16.59;59.12
13387;BME280;6763;48.524;9.044;2023-05-16T01:18:42;97449.16;;;16.62;58.90
13387;BME280;6763;48.524;9.044;2023-05-16T01:21:21;97444.69;;;16.64;58.89
13387;BME280;6763;48.524;9.044;2023-05-16T01:26:36;97448.91;;;16.66;58.95
13387;BME280;6763;48.524;9.044;2023-05-16T01:29:02;97448.81;;;16.68;59.05
13387;BME280;6763;48.524;9.044;2023-05-16T01:31:28;97451.38;;;16.69;59.08
13387;BME280;6763;48.524;9.044;2023-05-16T01:33:53;97453.91;;;16.71;58.74
13387;BME280;6763;48.524;9.044;2023-05-16T01:36:24;97448.69;;;16.71;58.53
13387;BME280;6763;48.524;9.044;2023-05-16T01:41:24;97447.84;;;16.70;58.52
13387;BME280;6763;48.524;9.044;2023-05-16T01:43:58;97447.84;;;16.70;58.54
13387;BME280;6763;48.524;9.044;2023-05-16T01:46:37;97444.41;;;16.70;58.67
13387;BME280;6763;48.524;9.044;2023-05-16T01:51:34;97446.22;;;16.68;59.03
13387;BME280;6763;48.524;9.044;2023-05-16T01:54:05;97445.59;;;16.63;58.84
13387;BME280;6763;48.524;9.044;2023-05-16T01:56:36;97448.53;;;16.57;58.87
13387;BME280;6763;48.524;9.044;2023-05-16T01:59:02;97451.38;;;16.51;59.10
13387;BME280;6763;48.524;9.044;2023-05-16T02:01:29;97453.44;;;16.44;59.28
13387;BME280;6763;48.524;9.044;2023-05-16T02:03:54;97452.03;;;16.37;59.35
13387;BME280;6763;48.524;9.044;2023-05-16T02:06:21;97453.94;;;16.34;59.09
13387;BME280;6763;48.524;9.044;2023-05-16T02:08:46;97455.00;;;16.30;59.12
13387;BME280;6763;48.524;9.044;2023-05-16T02:11:13;97455.13;;;16.27;59.72
13387;BME280;6763;48.524;9.044;2023-05-16T02:13:38;97456.91;;;16.26;59.50
13387;BME280;6763;48.524;9.044;2023-05-16T02:16:04;97463.81;;;16.27;59.42
13387;BME280;6763;48.524;9.044;2023-05-16T02:18:29;97460.34;;;16.27;59.40
13387;BME280;6763;48.524;9.044;2023-05-16T02:20:54;97459.44;;;16.28;59.25
13387;BME280;6763;48.524;9.044;2023-05-16T02:23:20;97456.84;;;16.28;59.21
13387;BME280;6763;48.524;9.044;2023-05-16T02:25:45;97455.13;;;16.27;59.27
13387;BME280;6763;48.524;9.044;2023-05-16T02:28:10;97456.00;;;16.27;59.14
13387;BME280;6763;48.524;9.044;2023-05-16T02:30:36;97456.06;;;16.26;59.38
13387;BME280;6763;48.524;9.044;2023-05-16T02:33:01;97454.38;;;16.25;59.30
13387;BME280;6763;48.524;9.044;2023-05-16T02:35:26;97456.91;;;16.26;58.99
13387;BME280;6763;48.524;9.044;2023-05-16T02:37:52;97456.06;;;16.26;59.19
13387;BME280;6763;48.524;9.044;2023-05-16T02:40:17;97462.19;;;16.25;59.47
13387;BME280;6763;48.524;9.044;2023-05-16T02:42:42;97468.19;;;16.27;59.43
13387;BME280;6763;48.524;9.044;2023-05-16T02:45:08;97463.78;;;16.29;59.51
13387;BME280;6763;48.524;9.044;2023-05-16T02:47:33;97464.53;;;16.31;59.51
13387;BME280;6763;48.524;9.044;2023-05-16T02:49:59;97470.44;;;16.34;59.30
13387;BME280;6763;48.524;9.044;2023-05-16T02:52:24;97462.56;;;16.36;59.41
13387;BME280;6763;48.524;9.044;2023-05-16T02:54:50;97464.19;;;16.38;59.28
13387;BME280;6763;48.524;9.044;2023-05-16T02:57:15;97457.19;;;16.39;59.16
13387;BME280;6763;48.524;9.044;2023-05-16T02:59:40;97452.75;;;16.41;59.01
13387;BME280;6763;48.524;9.044;2023-05-16T03:02:06;97461.47;;;16.40;59.13
13387;BME280;6763;48.524;9.044;2023-05-16T03:04:31;97451.13;;;16.38;59.22
13387;BME280;6763;48.524;9.044;2023-05-16T03:06:56;97450.22;;;16.39;59.07
13387;BME280;6763;48.524;9.044;2023-05-16T03:09:22;97447.59;;;16.39;59.12
13387;BME280;6763;48.524;9.044;2023-05-16T03:11:47;97445.03;;;16.38;59.18
13387;BME280;6763;48.524;9.044;2023-05-16T03:14:13;97449.41;;;16.37;58.99
13387;BME280;6763;48.524;9.044;2023-05-16T03:16:38;97448.66;;;16.35;58.82
13387;BME280;6763;48.524;9.044;2023-05-16T03:19:05;97454.72;;;16.36;58.93
13387;BME280;6763;48.524;9.044;2023-05-16T03:21:31;97455.63;;;16.35;59.19
13387;BME280;6763;48.524;9.044;2023-05-16T03:23:56;97458.19;;;16.36;59.01
13387;BME280;6763;48.524;9.044;2023-05-16T03:26:23;97459.84;;;16.37;58.98
13387;BME280;6763;48.524;9.044;2023-05-16T03:28:48;97465.03;;;16.39;59.04
13387;BME280;6763;48.524;9.044;2023-05-16T03:31:15;97464.19;;;16.38;58.96
13387;BME280;6763;48.524;9.044;2023-05-16T03:33:41;97466.69;;;16.40;59.16
13387;BME280;6763;48.524;9.044;2023-05-16T03:36:06;97464.09;;;16.40;59.06
13387;BME280;6763;48.524;9.044;2023-05-16T03:38:32;97458.97;;;16.38;58.85
13387;BME280;6763;48.524;9.044;2023-05-16T03:40:57;97458.97;;;16.38;58.77
13387;BME280;6763;48.524;9.044;2023-05-16T03:43:23;97461.63;;;16.37;58.88
13387;BME280;6763;48.524;9.044;2023-05-16T03:45:48;97458.97;;;16.38;58.93
13387;BME280;6763;48.524;9.044;2023-05-16T03:48:13;97451.13;;;16.38;59.05
13387;BME280;6763;48.524;9.044;2023-05-16T03:50:39;97455.34;;;16.41;58.98
13387;BME280;6763;48.524;9.044;2023-05-16T03:53:04;97450.03;;;16.42;59.14
13387;BME280;6763;48.524;9.044;2023-05-16T03:55:30;97449.13;;;16.43;58.90
13387;BME280;6763;48.524;9.044;2023-05-16T03:57:55;97449.03;;;16.45;59.05
13387;BME280;6763;48.524;9.044;2023-05-16T04:00:21;97462.06;;;16.46;59.17
13387;BME280;6763;48.524;9.044;2023-05-16T04:02:46;97458.59;;;16.46;59.01
13387;BME280;6763;48.524;9.044;2023-05-16T04:05:11;97464.66;;;16.46;58.86
13387;BME280;6763;48.524;9.044;2023-05-16T04:07:38;97463.72;;;16.47;58.81
13387;BME280;6763;48.524;9.044;2023-05-16T04:10:04;97473.34;;;16.47;58.96
13387;BME280;6763;48.524;9.044;2023-05-16T04:12:29;97479.34;;;16.49;59.24
13387;BME280;6763;48.524;9.044;2023-05-16T04:14:55;97483.53;;;16.53;58.98
13387;BME280;6763;48.524;9.044;2023-05-16T04:17:20;97475.50;;;16.57;58.98
13387;BME280;6763;48.524;9.044;2023-05-16T04:19:45;97478.78;;;16.61;58.77
13387;BME280;6763;48.524;9.044;2023-05-16T04:22:11;97484.78;;;16.63;58.78
13387;BME280;6763;48.524;9.044;2023-05-16T04:24:36;97483.78;;;16.65;58.77
13387;BME280;6763;48.524;9.044;2023-05-16T04:27:01;97485.38;;;16.69;58.80
13387;BME280;6763;48.524;9.044;2023-05-16T04:29:27;97477.38;;;16.72;58.94
13387;BME280;6763;48.524;9.044;2023-05-16T04:31:52;97476.25;;;16.78;59.03
13387;BME280;6763;48.524;9.044;2023-05-16T04:34:18;97476.88;;;16.83;58.89
13387;BME280;6763;48.524;9.044;2023-05-16T04:36:43;97476.53;;;16.89;58.87
13387;BME280;6763;48.524;9.044;2023-05-16T04:39:09;97475.50;;;16.93;58.97
13387;BME280;6763;48.524;9.044;2023-05-16T04:41:34;97475.13;;;17.01;58.63
13387;BME280;6763;48.524;9.044;2023-05-16T04:44:01;97478.34;;;17.06;58.57
13387;BME280;6763;48.524;9.044;2023-05-16T04:46:29;97478.22;;;17.09;58.24
13387;BME280;6763;48.524;9.044;2023-05-16T04:48:54;97479.81;;;17.11;58.19
13387;BME280;6763;48.524;9.044;2023-05-16T04:51:22;97483.28;;;17.12;58.14
13387;BME280;6763;48.524;9.044;2023-05-16T04:53:47;97479.66;;;17.14;58.03
13387;BME280;6763;48.524;9.044;2023-05-16T04:56:13;97471.81;;;17.14;57.93
13387;BME280;6763;48.524;9.044;2023-05-16T04:58:38;97473.59;;;17.14;58.03
13387;BME280;6763;48.524;9.044;2023-05-16T05:01:04;97471.03;;;17.12;57.92
13387;BME280;6763;48.524;9.044;2023-05-16T05:03:29;97477.06;;;17.14;57.99
13387;BME280;6763;48.524;9.044;2023-05-16T05:05:55;97481.44;;;17.14;58.09
13387;BME280;6763;48.524;9.044;2023-05-16T05:08:20;97479.66;;;17.14;58.02
13387;BME280;6763;48.524;9.044;2023-05-16T05:10:46;97483.09;;;17.15;58.01
13387;BME280;6763;48.524;9.044;2023-05-16T05:13:11;97485.53;;;17.19;58.06
13387;BME280;6763;48.524;9.044;2023-05-16T05:15:37;97481.81;;;17.23;57.82
13387;BME280;6763;48.524;9.044;2023-05-16T05:18:02;97484.34;;;17.25;57.70
13387;BME280;6763;48.524;9.044;2023-05-16T05:20:28;97483.44;;;17.26;57.78
13387;BME280;6763;48.524;9.044;2023-05-16T05:22:53;97490.38;;;17.27;57.87
13387;BME280;6763;48.524;9.044;2023-05-16T05:25:19;97493.75;;;17.29;57.73
13387;BME280;6763;48.524;9.044;2023-05-16T05:27:44;97492.75;;;17.31;57.94
13387;BME280;6763;48.524;9.044;2023-05-16T05:30:10;97498.59;;;17.36;57.50
13387;BME280;6763;48.524;9.044;2023-05-16T05:32:36;97493.22;;;17.40;57.68
13387;BME280;6763;48.524;9.044;2023-05-16T05:35:01;97496.44;;;17.45;57.73
13387;BME280;6763;48.524;9.044;2023-05-16T05:37:28;97504.00;;;17.51;57.43
13387;BME280;6763;48.524;9.044;2023-05-16T05:39:54;97504.63;;;17.56;57.36
13387;BME280;6763;48.524;9.044;2023-05-16T05:42:20;97497.53;;;17.58;57.63
13387;BME280;6763;48.524;9.044;2023-05-16T05:44:45;97493.94;;;17.60;57.32
13387;BME280;6763;48.524;9.044;2023-05-16T05:47:10;97498.91;;;17.65;57.21
13387;BME280;6763;48.524;9.044;2023-05-16T05:49:36;97501.28;;;17.69;57.11
13387;BME280;6763;48.524;9.044;2023-05-16T05:52:02;97499.28;;;17.74;57.38
13387;BME280;6763;48.524;9.044;2023-05-16T05:54:27;97500.69;;;17.81;57.37
13387;BME280;6763;48.524;9.044;2023-05-16T05:56:53;97499.50;;;17.87;56.73
13387;BME280;6763;48.524;9.044;2023-05-16T05:59:18;97506.38;;;17.89;56.78
13387;BME280;6763;48.524;9.044;2023-05-16T06:01:43;97501.78;;;17.93;56.86
13387;BME280;6763;48.524;9.044;2023-05-16T06:04:09;97505.25;;;17.93;55.74
13387;BME280;6763;48.524;9.044;2023-05-16T06:06:36;97505.34;;;17.92;55.94
13387;BME280;6763;48.524;9.044;2023-05-16T06:09:01;97507.13;;;17.91;56.12
13387;BME280;6763;48.524;9.044;2023-05-16T06:11:27;97513.03;;;17.95;56.19
13387;BME280;6763;48.524;9.044;2023-05-16T06:13:52;97509.50;;;17.96;54.65
13387;BME280;6763;48.524;9.044;2023-05-16T06:16:18;97507.88;;;17.93;54.85
13387;BME280;6763;48.524;9.044;2023-05-16T06:18:44;97513.88;;;17.95;55.05
13387;BME280;6763;48.524;9.044;2023-05-16T06:21:09;97511.09;;;17.98;54.81
13387;BME280;6763;48.524;9.044;2023-05-16T06:23:35;97500.47;;;18.02;54.69
13387;BME280;6763;48.524;9.044;2023-05-16T06:26:01;97517.69;;;18.06;54.48
13387;BME280;6763;48.524;9.044;2023-05-16T06:28:27;97517.47;;;18.10;54.22
13387;BME280;6763;48.524;9.044;2023-05-16T06:30:53;97521.63;;;18.14;54.25
13387;BME280;6763;48.524;9.044;2023-05-16T06:33:18;97516.81;;;18.22;54.29
13387;BME280;6763;48.524;9.044;2023-05-16T06:35:44;97527.16;;;18.25;52.76
13387;BME280;6763;48.524;9.044;2023-05-16T06:38:09;97525.59;;;18.21;53.15
13387;BME280;6763;48.524;9.044;2023-05-16T06:40:35;97538.63;;;18.23;53.16
13387;BME280;6763;48.524;9.044;2023-05-16T06:43:01;97526.28;;;18.25;53.01
13387;BME280;6763;48.524;9.044;2023-05-16T06:45:26;97522.81;;;18.24;52.81
13387;BME280;6763;48.524;9.044;2023-05-16T06:47:51;97527.31;;;18.22;52.42
13387;BME280;6763;48.524;9.044;2023-05-16T06:50:17;97525.78;;;18.18;52.43
13387;BME280;6763;48.524;9.044;2023-05-16T06:52:42;97524.09;;;18.17;52.72
13387;BME280;6763;48.524;9.044;2023-05-16T06:55:08;97530.34;;;18.15;52.22
13387;BME280;6763;48.524;9.044;2023-05-16T06:57:34;97532.09;;;18.14;52.23
13387;BME280;6763;48.524;9.044;2023-05-16T06:59:59;97526.00;;;18.14;52.17
13387;BME280;6763;48.524;9.044;2023-05-16T07:02:24;97527.00;;;18.11;52.31
13387;BME280;6763;48.524;9.044;2023-05-16T07:04:50;97533.97;;;18.12;52.16
13387;BME280;6763;48.524;9.044;2023-05-16T07:07:16;97525.16;;;18.13;51.52
13387;BME280;6763;48.524;9.044;2023-05-16T07:09:41;97525.25;;;18.12;51.23
13387;BME280;6763;48.524;9.044;2023-05-16T07:12:07;97538.34;;;18.12;51.30
13387;BME280;6763;48.524;9.044;2023-05-16T07:14:33;97534.72;;;18.14;51.13
13387;BME280;6763;48.524;9.044;2023-05-16T07:16:58;97539.50;;;18.23;51.48
13387;BME280;6763;48.524;9.044;2023-05-16T07:19:23;97535.44;;;18.33;51.09
13387;BME280;6763;48.524;9.044;2023-05-16T07:21:49;97532.94;;;18.47;51.07
13387;BME280;6763;48.524;9.044;2023-05-16T07:24:14;97530.59;;;18.58;50.31
13387;BME280;6763;48.524;9.044;2023-05-16T07:26:40;97523.16;;;18.67;49.96
13387;BME280;6763;48.524;9.044;2023-05-16T07:29:05;97535.09;;;18.72;49.92
13387;BME280;6763;48.524;9.044;2023-05-16T07:31:30;97533.97;;;18.76;48.83
13387;BME280;6763;48.524;9.044;2023-05-16T07:33:56;97528.84;;;18.75;48.91
13387;BME280;6763;48.524;9.044;2023-05-16T07:36:21;97531.34;;;18.76;48.37
13387;BME280;6763;48.524;9.044;2023-05-16T07:38:47;97524.50;;;18.74;48.62
13387;BME280;6763;48.524;9.044;2023-05-16T07:41:12;97532.63;;;18.69;48.56
13387;BME280;6763;48.524;9.044;2023-05-16T07:43:38;97542.09;;;18.72;48.93
13387;BME280;6763;48.524;9.044;2023-05-16T07:46:04;97544.63;;;18.73;48.59
13387;BME280;6763;48.524;9.044;2023-05-16T07:48:29;97537.03;;;18.69;48.14
13387;BME280;6763;48.524;9.044;2023-05-16T07:50:55;97548.78;;;18.62;47.99
13387;BME280;6763;48.524;9.044;2023-05-16T07:53:20;97546.44;;;18.57;48.11
13387;BME280;6763;48.524;9.044;2023-05-16T07:55:47;97552.31;;;18.61;48.50
13387;BME280;6763;48.524;9.044;2023-05-16T07:58:12;97551.75;;;18.71;48.10
13387;BME280;6763;48.524;9.044;2023-05-16T08:00:38;97555.81;;;18.77;48.05
13387;BME280;6763;48.524;9.044;2023-05-16T08:03:03;97541.53;;;18.82;47.82
13387;BME280;6763;48.524;9.044;2023-05-16T08:05:29;97560.31;;;18.90;48.08
13387;BME280;6763;48.524;9.044;2023-05-16T08:07:54;97551.41;;;18.93;47.60
13387;BME280;6763;48.524;9.044;2023-05-16T08:10:21;97561.91;;;18.93;47.39
13387;BME280;6763;48.524;9.044;2023-05-16T08:12:47;97556.41;;;18.82;47.52
13387;BME280;6763;48.524;9.044;2023-05-16T08:15:13;97559.19;;;18.79;47.65
13387;BME280;6763;48.524;9.044;2023-05-16T08:17:38;97556.41;;;18.82;47.54
13387;BME280;6763;48.524;9.044;2023-05-16T08:20:04;97563.09;;;18.87;47.50
13387;BME280;6763;48.524;9.044;2023-05-16T08:22:31;97566.78;;;18.99;47.45
13387;BME280;6763;48.524;9.044;2023-05-16T08:24:57;97561.72;;;19.11;46.62
13387;BME280;6763;48.524;9.044;2023-05-16T08:27:24;97564.34;;;19.27;46.42
13387;BME280;6763;48.524;9.044;2023-05-16T08:29:50;97560.19;;;19.39;45.59
13387;BME280;6763;48.524;9.044;2023-05-16T08:32:16;97560.41;;;19.50;45.90
13387;BME280;6763;48.524;9.044;2023-05-16T08:34:41;97569.28;;;19.63;45.58
13387;BME280;6763;48.524;9.044;2023-05-16T08:37:07;97564.38;;;19.57;44.81
13387;BME280;6763;48.524;9.044;2023-05-16T08:39:32;97564.41;;;19.41;45.04
13387;BME280;6763;48.524;9.044;2023-05-16T08:41:58;97574.41;;;19.35;45.54
13387;BME280;6763;48.524;9.044;2023-05-16T08:44:24;97569.16;;;19.35;45.23
13387;BME280;6763;48.524;9.044;2023-05-16T08:46:51;97573.88;;;19.28;45.54
13387;BME280;6763;48.524;9.044;2023-05-16T08:49:20;97574.06;;;19.25;45.78
13387;BME280;6763;48.524;9.044;2023-05-16T08:51:46;97582.78;;;19.26;45.96
13387;BME280;6763;48.524;9.044;2023-05-16T08:54:14;97589.63;;;19.28;45.76
13387;BME280;6763;48.524;9.044;2023-05-16T08:56:44;97586.41;;;19.23;45.81
13387;BME280;6763;48.524;9.044;2023-05-16T08:59:10;97595.75;;;19.13;45.95
13387;BME280;6763;48.524;9.044;2023-05-16T09:01:39;97592.84;;;19.02;46.13
13387;BME280;6763;48.524;9.044;2023-05-16T09:04:07;97596.00;;;18.93;46.38
13387;BME280;6763;48.524;9.044;2023-05-16T09:06:34;97587.97;;;18.80;46.55
13387;BME280;6763;48.524;9.044;2023-05-16T09:08:59;97590.81;;;18.76;46.71
13387;BME280;6763;48.524;9.044;2023-05-16T09:11:25;97598.03;;;18.72;47.12
13387;BME280;6763;48.524;9.044;2023-05-16T09:13:50;97601.06;;;18.65;47.27
13387;BME280;6763;48.524;9.044;2023-05-16T09:16:17;97599.75;;;18.56;47.25
13387;BME280;6763;48.524;9.044;2023-05-16T09:18:53;97602.00;;;18.46;47.37
13387;BME280;6763;48.524;9.044;2023-05-16T09:21:21;97605.94;;;18.38;47.28
13387;BME280;6763;48.524;9.044;2023-05-16T09:23:50;97598.41;;;18.32;47.56
13387;BME280;6763;48.524;9.044;2023-05-16T09:26:17;97601.50;;;18.23;48.26
13387;BME280;6763;48.524;9.044;2023-05-16T09:28:42;97597.34;;;18.19;48.18
13387;BME280;6763;48.524;9.044;2023-05-16T09:31:26;97601.06;;;18.15;47.92
13387;BME280;6763;48.524;9.044;2023-05-16T09:33:55;97601.31;;;18.10;48.74
13387;BME280;6763;48.524;9.044;2023-05-16T09:36:21;97600.31;;;18.13;48.56
13387;BME280;6763;48.524;9.044;2023-05-16T09:38:46;97603.38;;;18.21;48.34
13387;BME280;6763;48.524;9.044;2023-05-16T09:41:12;97602.97;;;18.28;48.27
13387;BME280;6763;48.524;9.044;2023-05-16T09:43:39;97609.72;;;18.32;47.73
13387;BME280;6763;48.524;9.044;2023-05-16T09:46:05;97609.03;;;18.29;47.99
13387;BME280;6763;48.524;9.044;2023-05-16T09:48:31;97614.53;;;18.24;47.90
13387;BME280;6763;48.524;9.044;2023-05-16T09:50:56;97604.91;;;18.25;48.02
13387;BME280;6763;48.524;9.044;2023-05-16T09:53:29;97612.34;;;18.32;47.90
13387;BME280;6763;48.524;9.044;2023-05-16T09:56:05;97611.78;;;18.43;47.78
13387;BME280;6763;48.524;9.044;2023-05-16T09:58:33;97608.78;;;18.50;47.34
13387;BME280;6763;48.524;9.044;2023-05-16T10:01:00;97607.03;;;18.51;47.42
13387;BME280;6763;48.524;9.044;2023-05-16T10:03:27;97607.03;;;18.51;47.18
13387;BME280;6763;48.524;9.044;2023-05-16T10:05:53;97611.41;;;18.50;47.34
13387;BME280;6763;48.524;9.044;2023-05-16T10:08:20;97607.88;;;18.51;47.21
13387;BME280;6763;48.524;9.044;2023-05-16T10:10:49;97608.78;;;18.50;47.10
13387;BME280;6763;48.524;9.044;2023-05-16T10:13:18;97607.72;;;18.54;47.07
13387;BME280;6763;48.524;9.044;2023-05-16T10:15:44;97610.16;;;18.57;47.23
13387;BME280;6763;48.524;9.044;2023-05-16T10:18:11;97609.75;;;18.65;46.85
13387;BME280;6763;48.524;9.044;2023-05-16T10:20:40;97611.19;;;18.71;46.85
13387;BME280;6763;48.524;9.044;2023-05-16T10:23:08;97595.56;;;18.85;46.71
13387;BME280;6763;48.524;9.044;2023-05-16T10:25:39;97602.69;;;18.98;46.70
13387;BME280;6763;48.524;9.044;2023-05-16T10:28:06;97601.00;;;19.13;46.21
13387;BME280;6763;48.524;9.044;2023-05-16T10:30:33;97598.34;;;19.29;45.80
13387;BME280;6763;48.524;9.044;2023-05-16T10:33:00;97597.44;;;19.45;46.04
13387;BME280;6763;48.524;9.044;2023-05-16T10:35:25;97595.03;;;19.56;45.45
13387;BME280;6763;48.524;9.044;2023-05-16T10:37:52;97598.22;;;19.61;45.27
13387;BME280;6763;48.524;9.044;2023-05-16T10:40:17;97595.59;;;19.61;45.06
13387;BME280;6763;48.524;9.044;2023-05-16T10:42:56;97589.88;;;19.55;45.18
13387;BME280;6763;48.524;9.044;2023-05-16T10:45:22;97595.19;;;19.53;44.85
13387;BME280;6763;48.524;9.044;2023-05-16T10:47:55;97592.19;;;19.45;44.46
13387;BME280;6763;48.524;9.044;2023-05-16T10:53:19;97587.75;;;19.30;45.20
13387;BME280;6763;48.524;9.044;2023-05-16T10:58:43;97588.13;;;19.24;45.46
13387;BME280;6763;48.524;9.044;2023-05-16T11:01:13;97589.13;;;19.22;45.05
13387;BME280;6763;48.524;9.044;2023-05-16T11:06:30;97602.44;;;19.03;45.68
13387;BME280;6763;48.524;9.044;2023-05-16T11:14:26;97621.28;;;18.78;46.45
13387;BME280;6763;48.524;9.044;2023-05-16T11:19:41;97621.09;;;18.66;47.16
13387;BME280;6763;48.524;9.044;2023-05-16T11:24:33;97617.72;;;18.46;47.45
13387;BME280;6763;48.524;9.044;2023-05-16T11:27:00;97625.41;;;18.34;47.88
13387;BME280;6763;48.524;9.044;2023-05-16T11:29:31;97621.47;;;18.25;48.14
13387;BME280;6763;48.524;9.044;2023-05-16T11:32:03;97620.00;;;18.20;48.42
13387;BME280;6763;48.524;9.044;2023-05-16T11:34:29;97634.09;;;18.17;48.41
13387;BME280;6763;48.524;9.044;2023-05-16T11:36:55;97626.41;;;18.14;48.77
13387;BME280;6763;48.524;9.044;2023-05-16T11:39:21;97630.94;;;18.11;49.27
13387;BME280;6763;48.524;9.044;2023-05-16T11:41:49;97631.88;;;18.10;49.23
13387;BME280;6763;48.524;9.044;2023-05-16T11:44:15;97634.66;;;18.07;49.35
13387;BME280;6763;48.524;9.044;2023-05-16T11:46:41;97638.38;;;18.03;49.46
13387;BME280;6763;48.524;9.044;2023-05-16T11:49:08;97636.91;;;17.97;50.32
13387;BME280;6763;48.524;9.044;2023-05-16T11:51:37;97644.97;;;17.92;50.13
13387;BME280;6763;48.524;9.044;2023-05-16T11:54:03;97645.28;;;17.86;50.88
13387;BME280;6763;48.524;9.044;2023-05-16T11:56:30;97642.97;;;17.80;51.05
13387;BME280;6763;48.524;9.044;2023-05-16T11:58:58;97649.34;;;17.75;51.40
13387;BME280;6763;48.524;9.044;2023-05-16T12:01:23;97645.19;;;17.71;51.27
13387;BME280;6763;48.524;9.044;2023-05-16T12:03:55;97645.63;;;17.62;51.75
13387;BME280;6763;48.524;9.044;2023-05-16T12:06:23;97653.16;;;17.51;52.28
13387;BME280;6763;48.524;9.044;2023-05-16T12:08:50;97652.66;;;17.43;52.82
13387;BME280;6763;48.524;9.044;2023-05-16T12:11:16;97666.13;;;17.35;53.37
13387;BME280;6763;48.524;9.044;2023-05-16T12:13:42;97668.25;;;17.27;53.64
13387;BME280;6763;48.524;9.044;2023-05-16T12:16:08;97658.84;;;17.23;54.10
13387;BME280;6763;48.524;9.044;2023-05-16T12:18:35;97658.97;;;17.20;54.56
13387;BME280;6763;48.524;9.044;2023-05-16T12:21:03;97654.97;;;17.13;54.24
13387;BME280;6763;48.524;9.044;2023-05-16T12:23:29;97661.63;;;17.01;54.99
13387;BME280;6763;48.524;9.044;2023-05-16T12:25:56;97654.31;;;16.89;55.14
13387;BME280;6763;48.524;9.044;2023-05-16T12:28:22;97661.75;;;16.80;55.70
13387;BME280;6763;48.524;9.044;2023-05-16T12:30:47;97664.13;;;16.84;55.58
13387;BME280;6763;48.524;9.044;2023-05-16T12:33:14;97662.63;;;16.99;55.70
13387;BME280;6763;48.524;9.044;2023-05-16T12:35:42;97669.47;;;17.01;55.54
13387;BME280;6763;48.524;9.044;2023-05-16T12:38:12;97664.91;;;17.05;55.77
13387;BME280;6763;48.524;9.044;2023-05-16T12:40:40;97657.72;;;17.10;56.11
13387;BME280;6763;48.524;9.044;2023-05-16T12:43:15;97656.03;;;17.09;55.93
13387;BME280;6763;48.524;9.044;2023-05-16T12:45:49;97662.94;;;17.10;56.25
13387;BME280;6763;48.524;9.044;2023-05-16T12:48:14;97668.25;;;17.08;56.07
13387;BME280;6763;48.524;9.044;2023-05-16T12:50:40;97661.53;;;17.03;55.92
13387;BME280;6763;48.524;9.044;2023-05-16T12:53:11;97664.25;;;17.01;55.99
13387;BME280;6763;48.524;9.044;2023-05-16T12:55:40;97666.03;;;16.99;55.75
13387;BME280;6763;48.524;9.044;2023-05-16T12:58:06;97662.13;;;16.91;56.06
13387;BME280;6763;48.524;9.044;2023-05-16T13:00:32;97667.34;;;16.91;56.64
13387;BME280;6763;48.524;9.044;2023-05-16T13:02:57;97666.25;;;16.95;56.33
13387;BME280;6763;48.524;9.044;2023-05-16T13:05:22;97670.16;;;17.05;56.61
13387;BME280;6763;48.524;9.044;2023-05-16T13:07:49;97676.09;;;17.08;56.04
13387;BME280;6763;48.524;9.044;2023-05-16T13:10:16;97680.44;;;17.09;56.33
13387;BME280;6763;48.524;9.044;2023-05-16T13:12:42;97673.63;;;17.05;56.10
13387;BME280;6763;48.524;9.044;2023-05-16T13:15:09;97683.53;;;16.99;55.87
13387;BME280;6763;48.524;9.044;2023-05-16T13:17:37;97681.97;;;16.95;56.15
13387;BME280;6763;48.524;9.044;2023-05-16T13:20:03;97686.41;;;16.93;55.99
13387;BME280;6763;48.524;9.044;2023-05-16T13:22:38;97682.09;;;16.92;56.08
13387;BME280;6763;48.524;9.044;2023-05-16T13:25:04;97686.16;;;16.99;56.29
13387;BME280;6763;48.524;9.044;2023-05-16T13:27:31;97697.16;;;17.05;56.13
13387;BME280;6763;48.524;9.044;2023-05-16T13:29:56;97698.88;;;17.06;55.25
13387;BME280;6763;48.524;9.044;2023-05-16T13:32:22;97703.50;;;17.00;54.81